sensor_id;sensor_type;location;lat;lon;timestamp;temperature;humidity
46720;DHT22;32452;51.382;-0.002;2024-03-25T00:00:33;6.40;87.70
46720;DHT22;32452;51.382;-0.002;2024-03-25T00:03:18;6.40;88.00
46720;DHT22;32452;51.382;-0.002;2024-03-25T00:06:05;6.40;88.30
46720;DHT22;32452;51.382;-0.002;2024-03-25T00:08:51;6.40;88.60
46720;DHT22;32452;51.382;-0.002;2024-03-25T00:11:35;6.40;88.90
46720;DHT22;32452;51.382;-0.002;2024-03-25T00:14:21;6.40;89.20
46720;DHT22;32452;51.382;-0.002;2024-03-25T00:17:06;6.40;89.60
46720;DHT22;32452;51.382;-0.002;2024-03-25T00:19:52;6.50;90.00
46720;DHT22;32452;51.382;-0.002;2024-03-25T00:22:36;6.40;90.00
46720;DHT22;32452;51.382;-0.002;2024-03-25T00:25:21;6.40;90.20
46720;DHT22;32452;51.382;-0.002;2024-03-25T00:28:05;6.40;90.40
46720;DHT22;32452;51.382;-0.002;2024-03-25T00:30:50;6.40;90.60
46720;DHT22;32452;51.382;-0.002;2024-03-25T00:33:34;6.40;90.70
46720;DHT22;32452;51.382;-0.002;2024-03-25T00:36:19;6.50;90.90
46720;DHT22;32452;51.382;-0.002;2024-03-25T00:39:04;6.50;91.00
46720;DHT22;32452;51.382;-0.002;2024-03-25T00:41:49;6.50;91.20
46720;DHT22;32452;51.382;-0.002;2024-03-25T00:44:33;6.50;91.30
46720;DHT22;32452;51.382;-0.002;2024-03-25T00:47:18;6.50;91.50
46720;DHT22;32452;51.382;-0.002;2024-03-25T00:50:03;6.50;91.70
46720;DHT22;32452;51.382;-0.002;2024-03-25T00:52:48;6.50;91.80
46720;DHT22;32452;51.382;-0.002;2024-03-25T00:55:32;6.50;91.90
46720;DHT22;32452;51.382;-0.002;2024-03-25T00:58:17;6.40;92.00
46720;DHT22;32452;51.382;-0.002;2024-03-25T01:01:01;6.40;92.20
46720;DHT22;32452;51.382;-0.002;2024-03-25T01:03:46;6.40;92.30
46720;DHT22;32452;51.382;-0.002;2024-03-25T01:06:30;6.40;92.50
46720;DHT22;32452;51.382;-0.002;2024-03-25T01:09:15;6.40;92.60
46720;DHT22;32452;51.382;-0.002;2024-03-25T01:12:00;6.40;92.80
46720;DHT22;32452;51.382;-0.002;2024-03-25T01:14:45;6.40;93.00
46720;DHT22;32452;51.382;-0.002;2024-03-25T01:17:30;6.40;93.10
46720;DHT22;32452;51.382;-0.002;2024-03-25T01:20:14;6.40;93.30
46720;DHT22;32452;51.382;-0.002;2024-03-25T01:22:59;6.50;93.50
46720;DHT22;32452;51.382;-0.002;2024-03-25T01:25:43;6.50;93.60
46720;DHT22;32452;51.382;-0.002;2024-03-25T01:28:28;6.50;93.70
46720;DHT22;32452;51.382;-0.002;2024-03-25T01:31:13;6.50;93.80
46720;DHT22;32452;51.382;-0.002;2024-03-25T01:33:58;6.50;94.00
46720;DHT22;32452;51.382;-0.002;2024-03-25T01:36:43;6.50;94.10
46720;DHT22;32452;51.382;-0.002;2024-03-25T01:39:27;6.50;94.20
46720;DHT22;32452;51.382;-0.002;2024-03-25T01:42:13;6.60;94.40
46720;DHT22;32452;51.382;-0.002;2024-03-25T01:44:58;6.60;94.50
46720;DHT22;32452;51.382;-0.002;2024-03-25T01:47:43;6.50;94.60
46720;DHT22;32452;51.382;-0.002;2024-03-25T01:50:29;6.50;94.80
46720;DHT22;32452;51.382;-0.002;2024-03-25T01:53:15;6.50;94.90
46720;DHT22;32452;51.382;-0.002;2024-03-25T01:56:00;6.50;95.00
46720;DHT22;32452;51.382;-0.002;2024-03-25T01:58:45;6.50;95.20
46720;DHT22;32452;51.382;-0.002;2024-03-25T02:01:30;6.40;95.10
46720;DHT22;32452;51.382;-0.002;2024-03-25T02:04:16;6.40;95.20
46720;DHT22;32452;51.382;-0.002;2024-03-25T02:07:01;6.40;95.30
46720;DHT22;32452;51.382;-0.002;2024-03-25T02:09:47;6.40;95.50
46720;DHT22;32452;51.382;-0.002;2024-03-25T02:12:32;6.40;95.60
46720;DHT22;32452;51.382;-0.002;2024-03-25T02:15:18;6.30;95.70
46720;DHT22;32452;51.382;-0.002;2024-03-25T02:18:03;6.30;95.80
46720;DHT22;32452;51.382;-0.002;2024-03-25T02:20:48;6.30;96.00
46720;DHT22;32452;51.382;-0.002;2024-03-25T02:23:33;6.20;96.10
46720;DHT22;32452;51.382;-0.002;2024-03-25T02:26:19;6.20;96.30
46720;DHT22;32452;51.382;-0.002;2024-03-25T02:29:04;6.20;96.40
46720;DHT22;32452;51.382;-0.002;2024-03-25T02:31:48;6.20;96.50
46720;DHT22;32452;51.382;-0.002;2024-03-25T02:34:33;6.20;96.70
46720;DHT22;32452;51.382;-0.002;2024-03-25T02:37:18;6.10;96.80
46720;DHT22;32452;51.382;-0.002;2024-03-25T02:40:04;6.10;97.00
46720;DHT22;32452;51.382;-0.002;2024-03-25T02:42:51;6.10;97.10
46720;DHT22;32452;51.382;-0.002;2024-03-25T02:45:36;6.10;97.30
46720;DHT22;32452;51.382;-0.002;2024-03-25T02:48:21;6.10;97.40
46720;DHT22;32452;51.382;-0.002;2024-03-25T02:51:05;6.10;97.60
46720;DHT22;32452;51.382;-0.002;2024-03-25T02:53:50;6.20;97.80
46720;DHT22;32452;51.382;-0.002;2024-03-25T02:56:36;6.20;98.00
46720;DHT22;32452;51.382;-0.002;2024-03-25T02:59:21;6.20;98.20
46720;DHT22;32452;51.382;-0.002;2024-03-25T03:02:06;6.20;98.30
46720;DHT22;32452;51.382;-0.002;2024-03-25T03:04:50;6.30;98.40
46720;DHT22;32452;51.382;-0.002;2024-03-25T03:07:35;6.30;98.50
46720;DHT22;32452;51.382;-0.002;2024-03-25T03:10:20;6.30;98.60
46720;DHT22;32452;51.382;-0.002;2024-03-25T03:13:04;6.30;98.60
46720;DHT22;32452;51.382;-0.002;2024-03-25T03:15:49;6.30;98.70
46720;DHT22;32452;51.382;-0.002;2024-03-25T03:18:34;6.30;98.80
46720;DHT22;32452;51.382;-0.002;2024-03-25T03:21:19;6.30;98.90
46720;DHT22;32452;51.382;-0.002;2024-03-25T03:24:04;6.30;99.00
46720;DHT22;32452;51.382;-0.002;2024-03-25T03:26:49;6.40;99.10
46720;DHT22;32452;51.382;-0.002;2024-03-25T03:29:34;6.40;99.20
46720;DHT22;32452;51.382;-0.002;2024-03-25T03:32:19;6.40;99.20
46720;DHT22;32452;51.382;-0.002;2024-03-25T03:35:03;6.40;99.30
46720;DHT22;32452;51.382;-0.002;2024-03-25T03:37:48;6.40;99.40
46720;DHT22;32452;51.382;-0.002;2024-03-25T03:40:32;6.40;99.40
46720;DHT22;32452;51.382;-0.002;2024-03-25T03:43:17;6.40;99.50
46720;DHT22;32452;51.382;-0.002;2024-03-25T03:46:02;6.40;99.60
46720;DHT22;32452;51.382;-0.002;2024-03-25T03:48:46;6.50;99.70
46720;DHT22;32452;51.382;-0.002;2024-03-25T03:51:31;6.50;99.70
46720;DHT22;32452;51.382;-0.002;2024-03-25T03:54:16;6.50;99.80
46720;DHT22;32452;51.382;-0.002;2024-03-25T03:57:00;6.50;99.90
46720;DHT22;32452;51.382;-0.002;2024-03-25T03:59:45;6.50;99.90
46720;DHT22;32452;51.382;-0.002;2024-03-25T04:02:29;6.50;99.90
46720;DHT22;32452;51.382;-0.002;2024-03-25T04:05:14;6.60;99.90
46720;DHT22;32452;51.382;-0.002;2024-03-25T04:07:58;6.60;99.90
46720;DHT22;32452;51.382;-0.002;2024-03-25T04:10:44;6.70;99.90
46720;DHT22;32452;51.382;-0.002;2024-03-25T04:13:29;6.70;99.90
46720;DHT22;32452;51.382;-0.002;2024-03-25T04:16:13;6.70;99.90
46720;DHT22;32452;51.382;-0.002;2024-03-25T04:18:58;6.70;99.90
46720;DHT22;32452;51.382;-0.002;2024-03-25T04:21:43;6.70;99.90
46720;DHT22;32452;51.382;-0.002;2024-03-25T04:24:27;6.80;99.90
46720;DHT22;32452;51.382;-0.002;2024-03-25T04:27:12;6.80;99.90
46720;DHT22;32452;51.382;-0.002;2024-03-25T04:29:57;6.80;99.90
46720;DHT22;32452;51.382;-0.002;2024-03-25T04:32:41;6.80;99.90
46720;DHT22;32452;51.382;-0.002;2024-03-25T04:35:26;6.80;99.90
46720;DHT22;32452;51.382;-0.002;2024-03-25T04:38:11;6.80;99.90
46720;DHT22;32452;51.382;-0.002;2024-03-25T04:40:55;6.80;99.90
46720;DHT22;32452;51.382;-0.002;2024-03-25T04:43:40;6.90;99.90
46720;DHT22;32452;51.382;-0.002;2024-03-25T04:46:25;6.90;99.90
46720;DHT22;32452;51.382;-0.002;2024-03-25T04:49:10;6.90;99.90
46720;DHT22;32452;51.382;-0.002;2024-03-25T04:51:55;6.90;99.90
46720;DHT22;32452;51.382;-0.002;2024-03-25T04:54:40;6.90;99.90
46720;DHT22;32452;51.382;-0.002;2024-03-25T04:57:25;7.00;99.90
46720;DHT22;32452;51.382;-0.002;2024-03-25T05:00:10;7.00;99.90
46720;DHT22;32452;51.382;-0.002;2024-03-25T05:02:55;7.00;99.90
46720;DHT22;32452;51.382;-0.002;2024-03-25T05:05:40;7.00;99.90
46720;DHT22;32452;51.382;-0.002;2024-03-25T05:08:25;7.00;99.90
46720;DHT22;32452;51.382;-0.002;2024-03-25T05:11:09;7.00;99.90
46720;DHT22;32452;51.382;-0.002;2024-03-25T05:13:54;7.00;99.90
46720;DHT22;32452;51.382;-0.002;2024-03-25T05:16:39;7.00;99.90
46720;DHT22;32452;51.382;-0.002;2024-03-25T05:19:23;7.00;99.90
46720;DHT22;32452;51.382;-0.002;2024-03-25T05:22:08;7.00;99.90
46720;DHT22;32452;51.382;-0.002;2024-03-25T05:24:52;7.00;99.90
46720;DHT22;32452;51.382;-0.002;2024-03-25T05:27:37;7.10;99.90
46720;DHT22;32452;51.382;-0.002;2024-03-25T05:30:22;7.00;99.90
46720;DHT22;32452;51.382;-0.002;2024-03-25T05:33:07;7.10;99.90
46720;DHT22;32452;51.382;-0.002;2024-03-25T05:35:52;7.10;99.90
46720;DHT22;32452;51.382;-0.002;2024-03-25T05:38:36;7.10;99.90
46720;DHT22;32452;51.382;-0.002;2024-03-25T05:41:21;7.00;99.90
46720;DHT22;32452;51.382;-0.002;2024-03-25T05:44:05;7.10;99.90
46720;DHT22;32452;51.382;-0.002;2024-03-25T05:46:50;7.10;99.90
46720;DHT22;32452;51.382;-0.002;2024-03-25T05:49:35;7.10;99.90
46720;DHT22;32452;51.382;-0.002;2024-03-25T05:52:19;7.10;99.90
46720;DHT22;32452;51.382;-0.002;2024-03-25T05:55:04;7.10;99.90
46720;DHT22;32452;51.382;-0.002;2024-03-25T05:57:49;7.10;99.90
46720;DHT22;32452;51.382;-0.002;2024-03-25T06:00:35;7.10;99.90
46720;DHT22;32452;51.382;-0.002;2024-03-25T06:03:21;7.20;99.90
46720;DHT22;32452;51.382;-0.002;2024-03-25T06:06:06;7.20;99.90
46720;DHT22;32452;51.382;-0.002;2024-03-25T06:08:50;7.20;99.90
46720;DHT22;32452;51.382;-0.002;2024-03-25T06:11:35;7.20;99.90
46720;DHT22;32452;51.382;-0.002;2024-03-25T06:14:20;7.20;99.90
46720;DHT22;32452;51.382;-0.002;2024-03-25T06:17:04;7.30;99.90
46720;DHT22;32452;51.382;-0.002;2024-03-25T06:19:49;7.30;99.90
46720;DHT22;32452;51.382;-0.002;2024-03-25T06:22:34;7.40;99.90
46720;DHT22;32452;51.382;-0.002;2024-03-25T06:25:18;7.30;99.90
46720;DHT22;32452;51.382;-0.002;2024-03-25T06:28:03;7.40;99.90
46720;DHT22;32452;51.382;-0.002;2024-03-25T06:30:49;7.50;99.90
46720;DHT22;32452;51.382;-0.002;2024-03-25T06:33:53;7.40;99.90
46720;DHT22;32452;51.382;-0.002;2024-03-25T06:36:56;7.50;99.90
46720;DHT22;32452;51.382;-0.002;2024-03-25T06:39:41;7.50;99.90
46720;DHT22;32452;51.382;-0.002;2024-03-25T06:42:26;7.60;99.90
46720;DHT22;32452;51.382;-0.002;2024-03-25T06:45:10;7.60;99.90
46720;DHT22;32452;51.382;-0.002;2024-03-25T06:47:55;7.70;99.90
46720;DHT22;32452;51.382;-0.002;2024-03-25T06:50:40;7.70;99.90
46720;DHT22;32452;51.382;-0.002;2024-03-25T06:53:25;7.80;99.90
46720;DHT22;32452;51.382;-0.002;2024-03-25T06:56:10;7.90;99.90
46720;DHT22;32452;51.382;-0.002;2024-03-25T06:58:54;7.90;99.90
46720;DHT22;32452;51.382;-0.002;2024-03-25T07:01:39;8.10;99.90
46720;DHT22;32452;51.382;-0.002;2024-03-25T07:04:24;8.10;99.90
46720;DHT22;32452;51.382;-0.002;2024-03-25T07:07:08;8.10;99.90
46720;DHT22;32452;51.382;-0.002;2024-03-25T07:09:53;8.20;99.90
46720;DHT22;32452;51.382;-0.002;2024-03-25T07:12:38;8.20;99.90
46720;DHT22;32452;51.382;-0.002;2024-03-25T07:15:23;8.30;99.90
46720;DHT22;32452;51.382;-0.002;2024-03-25T07:18:08;8.40;99.90
46720;DHT22;32452;51.382;-0.002;2024-03-25T07:20:55;8.40;99.90
46720;DHT22;32452;51.382;-0.002;2024-03-25T07:23:40;8.50;99.90
46720;DHT22;32452;51.382;-0.002;2024-03-25T07:26:24;8.60;99.90
46720;DHT22;32452;51.382;-0.002;2024-03-25T07:29:09;8.80;99.90
46720;DHT22;32452;51.382;-0.002;2024-03-25T07:31:53;8.90;99.90
46720;DHT22;32452;51.382;-0.002;2024-03-25T07:34:38;8.90;99.90
46720;DHT22;32452;51.382;-0.002;2024-03-25T07:37:22;8.90;99.90
46720;DHT22;32452;51.382;-0.002;2024-03-25T07:40:07;8.90;99.90
46720;DHT22;32452;51.382;-0.002;2024-03-25T07:42:53;8.90;99.90
46720;DHT22;32452;51.382;-0.002;2024-03-25T07:45:38;8.80;99.90
46720;DHT22;32452;51.382;-0.002;2024-03-25T07:48:23;8.80;99.90
46720;DHT22;32452;51.382;-0.002;2024-03-25T07:51:08;8.70;99.90
46720;DHT22;32452;51.382;-0.002;2024-03-25T07:53:53;8.80;99.90
46720;DHT22;32452;51.382;-0.002;2024-03-25T07:56:38;8.80;99.90
46720;DHT22;32452;51.382;-0.002;2024-03-25T07:59:23;8.90;99.90
46720;DHT22;32452;51.382;-0.002;2024-03-25T08:02:07;9.00;99.90
46720;DHT22;32452;51.382;-0.002;2024-03-25T08:04:52;9.30;99.90
46720;DHT22;32452;51.382;-0.002;2024-03-25T08:07:37;9.50;99.90
46720;DHT22;32452;51.382;-0.002;2024-03-25T08:10:21;9.90;99.90
46720;DHT22;32452;51.382;-0.002;2024-03-25T08:13:06;10.40;99.90
46720;DHT22;32452;51.382;-0.002;2024-03-25T08:15:51;10.60;99.90
46720;DHT22;32452;51.382;-0.002;2024-03-25T08:18:35;10.70;99.90
46720;DHT22;32452;51.382;-0.002;2024-03-25T08:21:20;10.70;99.90
46720;DHT22;32452;51.382;-0.002;2024-03-25T08:24:05;10.80;99.90
46720;DHT22;32452;51.382;-0.002;2024-03-25T08:26:50;10.80;99.90
46720;DHT22;32452;51.382;-0.002;2024-03-25T08:29:34;10.80;99.90
46720;DHT22;32452;51.382;-0.002;2024-03-25T08:32:19;10.70;99.90
46720;DHT22;32452;51.382;-0.002;2024-03-25T08:35:03;10.60;99.90
46720;DHT22;32452;51.382;-0.002;2024-03-25T08:37:48;10.40;99.90
46720;DHT22;32452;51.382;-0.002;2024-03-25T08:40:33;10.30;99.90
46720;DHT22;32452;51.382;-0.002;2024-03-25T08:43:18;10.20;99.90
46720;DHT22;32452;51.382;-0.002;2024-03-25T08:46:02;10.00;99.90
46720;DHT22;32452;51.382;-0.002;2024-03-25T08:48:48;10.00;99.90
46720;DHT22;32452;51.382;-0.002;2024-03-25T08:51:32;9.90;99.90
46720;DHT22;32452;51.382;-0.002;2024-03-25T08:54:18;10.00;99.90
46720;DHT22;32452;51.382;-0.002;2024-03-25T08:57:02;10.10;99.90
46720;DHT22;32452;51.382;-0.002;2024-03-25T08:59:47;10.20;99.90
46720;DHT22;32452;51.382;-0.002;2024-03-25T09:02:31;10.30;99.90
46720;DHT22;32452;51.382;-0.002;2024-03-25T09:05:16;10.50;99.90
46720;DHT22;32452;51.382;-0.002;2024-03-25T09:08:02;10.70;99.90
46720;DHT22;32452;51.382;-0.002;2024-03-25T09:10:47;10.90;99.90
46720;DHT22;32452;51.382;-0.002;2024-03-25T09:13:51;11.00;99.60
46720;DHT22;32452;51.382;-0.002;2024-03-25T09:16:36;10.90;99.10
46720;DHT22;32452;51.382;-0.002;2024-03-25T09:19:20;11.00;99.10
46720;DHT22;32452;51.382;-0.002;2024-03-25T09:22:05;11.00;98.90
46720;DHT22;32452;51.382;-0.002;2024-03-25T09:24:49;11.00;98.90
46720;DHT22;32452;51.382;-0.002;2024-03-25T09:27:34;10.90;98.50
46720;DHT22;32452;51.382;-0.002;2024-03-25T09:30:18;10.70;97.90
46720;DHT22;32452;51.382;-0.002;2024-03-25T09:33:03;10.60;97.50
46720;DHT22;32452;51.382;-0.002;2024-03-25T09:35:48;10.50;97.20
46720;DHT22;32452;51.382;-0.002;2024-03-25T09:38:32;10.30;97.40
46720;DHT22;32452;51.382;-0.002;2024-03-25T09:41:17;10.30;97.90
46720;DHT22;32452;51.382;-0.002;2024-03-25T09:44:02;10.30;97.40
46720;DHT22;32452;51.382;-0.002;2024-03-25T09:46:50;10.40;97.30
46720;DHT22;32452;51.382;-0.002;2024-03-25T09:49:35;10.40;96.90
46720;DHT22;32452;51.382;-0.002;2024-03-25T09:52:20;10.40;96.70
46720;DHT22;32452;51.382;-0.002;2024-03-25T09:55:05;10.40;96.60
46720;DHT22;32452;51.382;-0.002;2024-03-25T09:57:50;10.40;96.10
46720;DHT22;32452;51.382;-0.002;2024-03-25T10:00:36;10.40;96.10
46720;DHT22;32452;51.382;-0.002;2024-03-25T10:03:21;10.40;96.00
46720;DHT22;32452;51.382;-0.002;2024-03-25T10:06:06;10.30;95.80
46720;DHT22;32452;51.382;-0.002;2024-03-25T10:08:58;10.30;96.10
46720;DHT22;32452;51.382;-0.002;2024-03-25T10:11:42;10.40;96.10
46720;DHT22;32452;51.382;-0.002;2024-03-25T10:14:27;10.40;95.90
46720;DHT22;32452;51.382;-0.002;2024-03-25T10:17:11;10.40;95.80
46720;DHT22;32452;51.382;-0.002;2024-03-25T10:19:56;10.40;95.40
46720;DHT22;32452;51.382;-0.002;2024-03-25T10:22:45;10.40;95.40
46720;DHT22;32452;51.382;-0.002;2024-03-25T10:25:31;10.40;95.60
46720;DHT22;32452;51.382;-0.002;2024-03-25T10:28:15;10.40;95.50
46720;DHT22;32452;51.382;-0.002;2024-03-25T10:31:03;10.40;95.50
46720;DHT22;32452;51.382;-0.002;2024-03-25T10:33:48;10.30;95.40
46720;DHT22;32452;51.382;-0.002;2024-03-25T10:36:33;10.30;95.50
46720;DHT22;32452;51.382;-0.002;2024-03-25T10:39:20;10.30;95.50
46720;DHT22;32452;51.382;-0.002;2024-03-25T10:42:05;10.30;95.70
46720;DHT22;32452;51.382;-0.002;2024-03-25T10:44:50;10.30;95.80
46720;DHT22;32452;51.382;-0.002;2024-03-25T10:47:37;10.30;95.90
46720;DHT22;32452;51.382;-0.002;2024-03-25T10:50:28;10.30;96.00
46720;DHT22;32452;51.382;-0.002;2024-03-25T10:53:15;10.30;96.00
46720;DHT22;32452;51.382;-0.002;2024-03-25T10:56:02;10.30;96.10
46720;DHT22;32452;51.382;-0.002;2024-03-25T10:58:49;10.30;96.20
46720;DHT22;32452;51.382;-0.002;2024-03-25T11:01:35;10.40;96.10
46720;DHT22;32452;51.382;-0.002;2024-03-25T11:04:20;10.40;95.70
46720;DHT22;32452;51.382;-0.002;2024-03-25T11:07:10;10.30;95.70
46720;DHT22;32452;51.382;-0.002;2024-03-25T11:10:04;10.30;95.80
46720;DHT22;32452;51.382;-0.002;2024-03-25T11:12:50;10.40;95.80
46720;DHT22;32452;51.382;-0.002;2024-03-25T11:15:42;10.40;95.80
46720;DHT22;32452;51.382;-0.002;2024-03-25T11:18:30;10.50;95.90
46720;DHT22;32452;51.382;-0.002;2024-03-25T11:21:24;10.60;96.00
46720;DHT22;32452;51.382;-0.002;2024-03-25T11:24:09;10.70;95.80
46720;DHT22;32452;51.382;-0.002;2024-03-25T11:26:54;10.70;95.60
46720;DHT22;32452;51.382;-0.002;2024-03-25T11:29:38;10.70;95.50
46720;DHT22;32452;51.382;-0.002;2024-03-25T11:32:26;10.80;95.60
46720;DHT22;32452;51.382;-0.002;2024-03-25T11:35:11;10.80;95.10
46720;DHT22;32452;51.382;-0.002;2024-03-25T11:37:56;10.80;95.00
46720;DHT22;32452;51.382;-0.002;2024-03-25T11:40:43;10.90;94.90
46720;DHT22;32452;51.382;-0.002;2024-03-25T11:43:28;10.90;94.60
46720;DHT22;32452;51.382;-0.002;2024-03-25T11:46:17;11.00;94.40
46720;DHT22;32452;51.382;-0.002;2024-03-25T11:49:02;11.00;94.20
46720;DHT22;32452;51.382;-0.002;2024-03-25T11:51:47;11.00;94.00
46720;DHT22;32452;51.382;-0.002;2024-03-25T11:54:32;11.00;93.90
46720;DHT22;32452;51.382;-0.002;2024-03-25T11:57:16;11.10;93.80
46720;DHT22;32452;51.382;-0.002;2024-03-25T12:00:01;11.30;93.70
46720;DHT22;32452;51.382;-0.002;2024-03-25T12:02:49;11.40;93.50
46720;DHT22;32452;51.382;-0.002;2024-03-25T12:05:34;11.60;93.10
46720;DHT22;32452;51.382;-0.002;2024-03-25T12:08:18;11.80;93.10
46720;DHT22;32452;51.382;-0.002;2024-03-25T12:11:03;12.00;92.70
46720;DHT22;32452;51.382;-0.002;2024-03-25T12:14:03;12.10;92.50
46720;DHT22;32452;51.382;-0.002;2024-03-25T12:16:48;12.20;92.30
46720;DHT22;32452;51.382;-0.002;2024-03-25T12:19:33;12.30;92.10
46720;DHT22;32452;51.382;-0.002;2024-03-25T12:22:18;12.50;91.50
46720;DHT22;32452;51.382;-0.002;2024-03-25T12:25:04;12.50;91.00
46720;DHT22;32452;51.382;-0.002;2024-03-25T12:27:50;12.30;90.40
46720;DHT22;32452;51.382;-0.002;2024-03-25T12:30:49;12.20;90.50
46720;DHT22;32452;51.382;-0.002;2024-03-25T12:33:41;12.10;90.80
46720;DHT22;32452;51.382;-0.002;2024-03-25T12:36:25;12.00;90.90
46720;DHT22;32452;51.382;-0.002;2024-03-25T12:39:16;11.90;91.20
46720;DHT22;32452;51.382;-0.002;2024-03-25T12:42:04;11.90;91.40
46720;DHT22;32452;51.382;-0.002;2024-03-25T12:44:49;11.80;91.50
46720;DHT22;32452;51.382;-0.002;2024-03-25T12:47:34;11.80;91.50
46720;DHT22;32452;51.382;-0.002;2024-03-25T12:50:18;11.80;91.60
46720;DHT22;32452;51.382;-0.002;2024-03-25T12:53:03;11.80;91.70
46720;DHT22;32452;51.382;-0.002;2024-03-25T12:55:48;11.90;91.40
46720;DHT22;32452;51.382;-0.002;2024-03-25T12:58:33;12.00;91.20
46720;DHT22;32452;51.382;-0.002;2024-03-25T13:01:18;12.20;91.10
46720;DHT22;32452;51.382;-0.002;2024-03-25T13:04:03;12.30;90.40
46720;DHT22;32452;51.382;-0.002;2024-03-25T13:06:48;12.40;89.90
46720;DHT22;32452;51.382;-0.002;2024-03-25T13:09:32;12.50;90.00
46720;DHT22;32452;51.382;-0.002;2024-03-25T13:12:17;12.50;90.00
46720;DHT22;32452;51.382;-0.002;2024-03-25T13:15:02;12.60;89.90
46720;DHT22;32452;51.382;-0.002;2024-03-25T13:17:46;12.60;89.90
46720;DHT22;32452;51.382;-0.002;2024-03-25T13:20:31;12.50;89.50
46720;DHT22;32452;51.382;-0.002;2024-03-25T13:23:15;12.30;89.70
46720;DHT22;32452;51.382;-0.002;2024-03-25T13:26:00;12.20;89.20
46720;DHT22;32452;51.382;-0.002;2024-03-25T13:28:45;12.20;89.40
46720;DHT22;32452;51.382;-0.002;2024-03-25T13:31:30;12.20;88.90
46720;DHT22;32452;51.382;-0.002;2024-03-25T13:34:15;12.20;88.80
46720;DHT22;32452;51.382;-0.002;2024-03-25T13:36:59;12.30;89.20
46720;DHT22;32452;51.382;-0.002;2024-03-25T13:39:44;12.40;88.40
46720;DHT22;32452;51.382;-0.002;2024-03-25T13:42:30;12.40;86.00
46720;DHT22;32452;51.382;-0.002;2024-03-25T13:45:14;12.40;85.10
46720;DHT22;32452;51.382;-0.002;2024-03-25T13:47:59;12.40;84.80
46720;DHT22;32452;51.382;-0.002;2024-03-25T13:50:44;12.40;83.80
46720;DHT22;32452;51.382;-0.002;2024-03-25T13:53:28;12.40;83.80
46720;DHT22;32452;51.382;-0.002;2024-03-25T13:56:13;12.40;84.20
46720;DHT22;32452;51.382;-0.002;2024-03-25T13:58:57;12.30;83.90
46720;DHT22;32452;51.382;-0.002;2024-03-25T14:01:42;12.40;84.40
46720;DHT22;32452;51.382;-0.002;2024-03-25T14:04:27;12.50;84.50
46720;DHT22;32452;51.382;-0.002;2024-03-25T14:07:11;12.50;84.10
46720;DHT22;32452;51.382;-0.002;2024-03-25T14:09:56;12.60;84.40
46720;DHT22;32452;51.382;-0.002;2024-03-25T14:12:41;12.60;84.40
46720;DHT22;32452;51.382;-0.002;2024-03-25T14:15:25;12.70;84.50
46720;DHT22;32452;51.382;-0.002;2024-03-25T14:18:10;12.70;84.00
46720;DHT22;32452;51.382;-0.002;2024-03-25T14:20:54;12.70;83.20
46720;DHT22;32452;51.382;-0.002;2024-03-25T14:23:39;12.70;82.90
46720;DHT22;32452;51.382;-0.002;2024-03-25T14:26:27;12.80;83.00
46720;DHT22;32452;51.382;-0.002;2024-03-25T14:29:12;12.80;81.60
46720;DHT22;32452;51.382;-0.002;2024-03-25T14:31:56;12.80;79.90
46720;DHT22;32452;51.382;-0.002;2024-03-25T14:34:41;12.70;80.40
46720;DHT22;32452;51.382;-0.002;2024-03-25T14:37:26;12.70;81.00
46720;DHT22;32452;51.382;-0.002;2024-03-25T14:40:11;12.70;81.10
46720;DHT22;32452;51.382;-0.002;2024-03-25T14:42:57;12.60;81.00
46720;DHT22;32452;51.382;-0.002;2024-03-25T14:45:41;12.60;80.80
46720;DHT22;32452;51.382;-0.002;2024-03-25T14:48:26;12.60;80.20
46720;DHT22;32452;51.382;-0.002;2024-03-25T14:51:10;12.60;80.10
46720;DHT22;32452;51.382;-0.002;2024-03-25T14:53:55;12.60;79.10
46720;DHT22;32452;51.382;-0.002;2024-03-25T14:56:40;12.50;78.50
46720;DHT22;32452;51.382;-0.002;2024-03-25T14:59:24;12.50;78.40
46720;DHT22;32452;51.382;-0.002;2024-03-25T15:02:09;12.50;78.00
46720;DHT22;32452;51.382;-0.002;2024-03-25T15:04:57;12.50;78.20
46720;DHT22;32452;51.382;-0.002;2024-03-25T15:07:42;12.50;78.20
46720;DHT22;32452;51.382;-0.002;2024-03-25T15:10:26;12.60;78.20
46720;DHT22;32452;51.382;-0.002;2024-03-25T15:13:11;12.60;77.30
46720;DHT22;32452;51.382;-0.002;2024-03-25T15:15:56;12.50;76.90
46720;DHT22;32452;51.382;-0.002;2024-03-25T15:18:41;12.50;76.70
46720;DHT22;32452;51.382;-0.002;2024-03-25T15:21:26;12.50;77.00
46720;DHT22;32452;51.382;-0.002;2024-03-25T15:24:10;12.40;77.50
46720;DHT22;32452;51.382;-0.002;2024-03-25T15:26:55;12.30;77.70
46720;DHT22;32452;51.382;-0.002;2024-03-25T15:29:39;12.30;77.90
46720;DHT22;32452;51.382;-0.002;2024-03-25T15:32:24;12.20;77.70
46720;DHT22;32452;51.382;-0.002;2024-03-25T15:35:09;12.20;77.80
46720;DHT22;32452;51.382;-0.002;2024-03-25T15:37:53;12.10;77.70
46720;DHT22;32452;51.382;-0.002;2024-03-25T15:40:38;12.10;77.80
46720;DHT22;32452;51.382;-0.002;2024-03-25T15:43:23;12.10;77.90
46720;DHT22;32452;51.382;-0.002;2024-03-25T15:46:08;12.10;78.00
46720;DHT22;32452;51.382;-0.002;2024-03-25T15:48:53;12.10;77.60
46720;DHT22;32452;51.382;-0.002;2024-03-25T15:51:37;12.10;77.50
46720;DHT22;32452;51.382;-0.002;2024-03-25T15:54:22;12.10;77.80
46720;DHT22;32452;51.382;-0.002;2024-03-25T15:57:06;12.10;78.10
46720;DHT22;32452;51.382;-0.002;2024-03-25T15:59:51;12.10;78.30
46720;DHT22;32452;51.382;-0.002;2024-03-25T16:02:36;12.10;78.50
46720;DHT22;32452;51.382;-0.002;2024-03-25T16:05:21;12.10;78.70
46720;DHT22;32452;51.382;-0.002;2024-03-25T16:08:06;12.00;78.90
46720;DHT22;32452;51.382;-0.002;2024-03-25T16:10:50;12.00;79.10
46720;DHT22;32452;51.382;-0.002;2024-03-25T16:13:36;12.00;79.00
46720;DHT22;32452;51.382;-0.002;2024-03-25T16:16:21;11.90;79.00
46720;DHT22;32452;51.382;-0.002;2024-03-25T16:19:06;11.90;78.90
46720;DHT22;32452;51.382;-0.002;2024-03-25T16:21:51;11.90;78.30
46720;DHT22;32452;51.382;-0.002;2024-03-25T16:24:35;11.90;76.60
46720;DHT22;32452;51.382;-0.002;2024-03-25T16:27:22;11.90;76.70
46720;DHT22;32452;51.382;-0.002;2024-03-25T16:30:07;11.80;75.70
46720;DHT22;32452;51.382;-0.002;2024-03-25T16:32:52;11.80;75.70
46720;DHT22;32452;51.382;-0.002;2024-03-25T16:35:37;11.80;75.80
46720;DHT22;32452;51.382;-0.002;2024-03-25T16:38:21;11.80;75.50
46720;DHT22;32452;51.382;-0.002;2024-03-25T16:41:06;11.70;75.50
46720;DHT22;32452;51.382;-0.002;2024-03-25T16:43:51;11.60;75.50
46720;DHT22;32452;51.382;-0.002;2024-03-25T16:46:35;11.60;75.80
46720;DHT22;32452;51.382;-0.002;2024-03-25T16:49:20;11.50;76.10
46720;DHT22;32452;51.382;-0.002;2024-03-25T16:52:04;11.40;76.60
46720;DHT22;32452;51.382;-0.002;2024-03-25T16:54:49;11.40;77.20
46720;DHT22;32452;51.382;-0.002;2024-03-25T16:57:34;11.40;77.70
46720;DHT22;32452;51.382;-0.002;2024-03-25T17:00:19;11.30;78.20
46720;DHT22;32452;51.382;-0.002;2024-03-25T17:03:04;11.30;78.70
46720;DHT22;32452;51.382;-0.002;2024-03-25T17:05:50;11.30;79.10
46720;DHT22;32452;51.382;-0.002;2024-03-25T17:08:35;11.20;79.50
46720;DHT22;32452;51.382;-0.002;2024-03-25T17:11:20;11.20;79.80
46720;DHT22;32452;51.382;-0.002;2024-03-25T17:14:05;11.20;80.20